createdAt,value
2023-05-14T00:02:25.177Z,14.00
2023-05-14T00:04:52.993Z,14.00
2023-05-14T00:07:20.048Z,14.00
2023-05-14T00:09:50.027Z,13.90
2023-05-14T00:12:17.127Z,13.90
2023-05-14T00:14:44.104Z,13.90
2023-05-14T00:17:11.079Z,13.90
2023-05-14T00:19:41.913Z,13.90
2023-05-14T00:22:09.476Z,13.90
2023-05-14T00:24:36.722Z,13.90
2023-05-14T00:27:04.511Z,13.80
2023-05-14T00:29:31.562Z,13.80
2023-05-14T00:31:58.617Z,13.80
2023-05-14T00:34:25.662Z,13.80
2023-05-14T00:36:52.716Z,13.70
2023-05-14T00:39:20.189Z,13.70
2023-05-14T00:41:47.185Z,13.70
2023-05-14T00:44:14.193Z,13.70
2023-05-14T00:46:41.534Z,13.70
2023-05-14T00:49:09.013Z,13.60
2023-05-14T00:51:36.107Z,13.60
2023-05-14T00:54:03.295Z,13.60
2023-05-14T00:56:30.361Z,13.60
2023-05-14T00:58:57.377Z,13.60
2023-05-14T01:01:24.516Z,13.50
2023-05-14T01:03:53.509Z,13.50
2023-05-14T01:06:29.280Z,13.40
2023-05-14T01:09:18.122Z,13.40
2023-05-14T01:12:06.171Z,13.40
2023-05-14T01:14:45.186Z,13.40
2023-05-14T01:17:15.360Z,13.30
2023-05-14T01:19:44.108Z,13.30
2023-05-14T01:22:12.013Z,13.30
2023-05-14T01:24:39.581Z,13.20
2023-05-14T01:27:13.813Z,13.20
2023-05-14T01:29:45.587Z,13.30
2023-05-14T01:32:13.819Z,13.20
2023-05-14T01:34:42.180Z,13.20
2023-05-14T01:37:12.875Z,13.10
2023-05-14T01:39:41.939Z,13.10
2023-05-14T01:42:09.994Z,13.10
2023-05-14T01:44:37.480Z,13.00
2023-05-14T01:47:05.264Z,13.00
2023-05-14T01:49:32.736Z,13.00
2023-05-14T01:52:00.147Z,13.00
2023-05-14T01:54:27.214Z,13.00
2023-05-14T01:56:54.418Z,13.00
2023-05-14T01:59:21.577Z,12.90
2023-05-14T02:01:48.922Z,12.90
2023-05-14T02:04:16.087Z,12.90
2023-05-14T02:06:43.128Z,12.90
2023-05-14T02:09:10.456Z,12.90
2023-05-14T02:11:37.648Z,12.90
2023-05-14T02:14:04.798Z,12.90
2023-05-14T02:16:31.853Z,12.90
2023-05-14T02:18:59.159Z,12.90
2023-05-14T02:21:26.570Z,12.90
2023-05-14T02:23:53.777Z,12.90
2023-05-14T02:26:21.649Z,12.90
2023-05-14T02:28:48.797Z,12.90
2023-05-14T02:31:17.681Z,12.80
2023-05-14T02:33:45.059Z,12.80
2023-05-14T02:36:12.164Z,12.80
2023-05-14T02:38:39.181Z,12.80
2023-05-14T02:41:06.246Z,12.80
2023-05-14T02:43:33.323Z,12.70
2023-05-14T02:46:00.383Z,12.70
2023-05-14T02:48:27.489Z,12.70
2023-05-14T02:50:54.551Z,12.70
2023-05-14T02:53:21.581Z,12.70
2023-05-14T02:55:48.994Z,12.70
2023-05-14T02:58:16.212Z,12.80
2023-05-14T03:00:43.223Z,12.80
2023-05-14T03:03:10.765Z,12.70
2023-05-14T03:05:38.440Z,12.70
2023-05-14T03:08:05.851Z,12.70
2023-05-14T03:10:33.115Z,12.70
2023-05-14T03:13:00.161Z,12.60
2023-05-14T03:15:27.309Z,12.60
2023-05-14T03:17:54.481Z,12.50
2023-05-14T03:20:23.512Z,12.50
2023-05-14T03:22:50.772Z,12.50
2023-05-14T03:25:18.017Z,12.50
2023-05-14T03:27:45.180Z,12.50
2023-05-14T03:30:12.762Z,12.40
2023-05-14T03:32:40.039Z,12.40
2023-05-14T03:35:08.189Z,12.40
2023-05-14T03:37:35.492Z,12.40
2023-05-14T03:40:02.826Z,12.40
2023-05-14T03:42:30.005Z,12.40
2023-05-14T03:44:57.225Z,12.40
2023-05-14T03:47:24.291Z,12.40
2023-05-14T03:49:51.473Z,12.40
2023-05-14T03:52:18.621Z,12.40
2023-05-14T03:54:45.588Z,12.40
2023-05-14T03:57:12.787Z,12.50
2023-05-14T03:59:39.891Z,12.40
2023-05-14T04:02:07.870Z,12.40
2023-05-14T04:04:35.168Z,12.40
2023-05-14T04:07:02.332Z,12.40
2023-05-14T04:09:29.414Z,12.40
2023-05-14T04:11:56.438Z,12.50
2023-05-14T04:14:23.544Z,12.40
2023-05-14T04:16:50.572Z,12.40
2023-05-14T04:19:18.364Z,12.40
2023-05-14T04:21:45.564Z,12.40
2023-05-14T04:24:12.578Z,12.50
2023-05-14T04:26:39.681Z,12.50
2023-05-14T04:29:06.709Z,12.60
2023-05-14T04:31:34.030Z,12.60
2023-05-14T04:34:01.549Z,12.60
2023-05-14T04:36:28.761Z,12.60
2023-05-14T04:38:56.144Z,12.60
2023-05-14T04:41:23.323Z,12.60
2023-05-14T04:43:50.990Z,12.60
2023-05-14T04:46:18.188Z,12.50
2023-05-14T04:48:45.201Z,12.60
2023-05-14T04:51:12.449Z,12.70
2023-05-14T04:53:39.498Z,13.20
2023-05-14T04:56:06.921Z,13.50
2023-05-14T04:58:35.208Z,13.70
2023-05-14T05:01:05.225Z,13.90
2023-05-14T05:03:32.530Z,13.80
2023-05-14T05:05:59.679Z,13.80
2023-05-14T05:08:27.048Z,13.70
2023-05-14T05:10:54.091Z,13.60
2023-05-14T05:13:21.146Z,13.60
2023-05-14T05:15:48.339Z,13.70
2023-05-14T05:18:15.470Z,13.60
2023-05-14T05:20:42.526Z,13.70
2023-05-14T05:23:09.495Z,13.80
2023-05-14T05:25:36.520Z,13.80
2023-05-14T05:28:03.526Z,13.90
2023-05-14T05:30:30.871Z,13.90
2023-05-14T05:32:58.115Z,13.70
2023-05-14T05:35:25.339Z,13.60
2023-05-14T05:37:52.510Z,13.40
2023-05-14T05:40:19.594Z,13.30
2023-05-14T05:42:46.545Z,13.30
2023-05-14T05:45:13.590Z,13.30
2023-05-14T05:47:41.082Z,13.50
2023-05-14T05:50:08.986Z,13.70
2023-05-14T05:52:36.041Z,13.80
2023-05-14T05:55:03.877Z,14.00
2023-05-14T05:57:31.028Z,14.00
2023-05-14T05:59:58.230Z,14.10
2023-05-14T06:02:25.591Z,14.00
2023-05-14T06:04:53.257Z,13.80
2023-05-14T06:07:20.504Z,13.90
2023-05-14T06:09:47.631Z,13.90
2023-05-14T06:12:14.706Z,13.80
2023-05-14T06:14:41.777Z,13.80
2023-05-14T06:17:08.930Z,14.10
2023-05-14T06:19:36.064Z,14.20
2023-05-14T06:22:03.209Z,14.20
2023-05-14T06:24:30.247Z,14.20
2023-05-14T06:26:57.406Z,14.40
2023-05-14T06:29:25.265Z,14.60
2023-05-14T06:31:52.548Z,14.70
2023-05-14T06:34:19.687Z,14.90
2023-05-14T06:36:46.779Z,15.00
2023-05-14T06:39:13.738Z,15.20
2023-05-14T06:41:40.832Z,14.90
2023-05-14T06:44:07.914Z,14.80
2023-05-14T06:46:35.211Z,14.80
2023-05-14T06:49:02.438Z,14.90
2023-05-14T06:51:29.676Z,15.10
2023-05-14T06:53:56.846Z,15.20
2023-05-14T06:56:23.975Z,15.50
2023-05-14T06:58:51.289Z,15.20
2023-05-14T07:01:18.594Z,15.10
2023-05-14T07:03:45.757Z,14.70
2023-05-14T07:06:13.734Z,14.40
2023-05-14T07:08:41.082Z,14.10
2023-05-14T07:11:10.690Z,14.20
2023-05-14T07:13:37.955Z,14.40
2023-05-14T07:16:05.630Z,14.60
2023-05-14T07:18:33.010Z,14.70
2023-05-14T07:21:00.187Z,14.90
2023-05-14T07:23:27.432Z,15.10
2023-05-14T07:25:54.315Z,15.20
2023-05-14T07:28:21.604Z,15.40
2023-05-14T07:30:48.806Z,15.60
2023-05-14T07:33:15.899Z,15.60
2023-05-14T07:35:43.176Z,15.70
2023-05-14T07:38:10.232Z,15.10
2023-05-14T07:40:37.535Z,15.00
2023-05-14T07:43:04.577Z,15.00
2023-05-14T07:45:31.740Z,15.20
2023-05-14T07:47:59.063Z,15.40
2023-05-14T07:50:26.594Z,15.50
2023-05-14T07:52:53.790Z,15.10
2023-05-14T07:55:21.210Z,14.80
2023-05-14T07:57:48.181Z,14.80
2023-05-14T08:00:16.918Z,15.00
2023-05-14T08:02:45.371Z,14.90
2023-05-14T08:05:12.852Z,14.90
2023-05-14T08:07:40.123Z,14.90
2023-05-14T08:10:08.244Z,14.90
2023-05-14T08:12:35.409Z,15.10
2023-05-14T08:15:02.870Z,15.20
2023-05-14T08:17:30.458Z,15.10
2023-05-14T08:19:57.652Z,14.90
2023-05-14T08:22:24.739Z,15.00
2023-05-14T08:24:51.723Z,15.10
2023-05-14T08:27:18.699Z,15.30
2023-05-14T08:29:45.748Z,15.30
2023-05-14T08:32:22.810Z,15.50
2023-05-14T08:34:52.003Z,15.60
2023-05-14T08:37:19.170Z,15.70
2023-05-14T08:39:46.345Z,16.00
2023-05-14T08:42:15.750Z,15.90
2023-05-14T08:44:51.930Z,15.60
2023-05-14T08:47:21.531Z,15.60
2023-05-14T08:49:55.465Z,15.80
2023-05-14T08:52:23.361Z,16.00
2023-05-14T08:54:52.931Z,16.40
2023-05-14T08:57:21.527Z,16.50
2023-05-14T08:59:48.716Z,16.50
2023-05-14T09:02:17.499Z,16.30
2023-05-14T09:04:45.064Z,16.10
2023-05-14T09:07:12.384Z,16.20
2023-05-14T09:09:39.686Z,16.50
2023-05-14T09:12:07.250Z,16.90
2023-05-14T09:14:34.361Z,17.40
2023-05-14T09:17:01.771Z,17.80
2023-05-14T09:19:28.768Z,17.90
2023-05-14T09:21:59.096Z,17.80
2023-05-14T09:24:29.350Z,17.60
2023-05-14T09:26:58.241Z,16.90
2023-05-14T09:29:32.223Z,16.80
2023-05-14T09:32:02.379Z,16.90
2023-05-14T09:34:32.368Z,17.00
2023-05-14T09:37:01.547Z,16.90
2023-05-14T09:39:29.649Z,17.20
2023-05-14T09:41:56.909Z,17.10
2023-05-14T09:44:24.896Z,17.20
2023-05-14T09:46:53.173Z,17.00
2023-05-14T09:49:20.779Z,16.90
2023-05-14T09:51:49.872Z,17.00
2023-05-14T09:54:17.234Z,16.90
2023-05-14T09:56:44.933Z,17.20
2023-05-14T09:59:12.196Z,17.20
2023-05-14T10:01:42.085Z,17.50
2023-05-14T10:04:11.369Z,17.40
2023-05-14T10:06:40.138Z,17.40
2023-05-14T10:09:16.875Z,17.50
2023-05-14T10:11:45.795Z,17.60
2023-05-14T10:14:31.479Z,17.70
2023-05-14T10:16:59.631Z,17.80
2023-05-14T10:19:26.915Z,17.70
2023-05-14T10:21:57.697Z,18.10
2023-05-14T10:24:26.082Z,18.30
2023-05-14T10:26:53.825Z,17.80
2023-05-14T10:29:31.757Z,17.90
2023-05-14T10:31:58.792Z,17.90
2023-05-14T10:34:38.031Z,18.10
2023-05-14T10:37:26.023Z,18.40
2023-05-14T10:39:57.011Z,18.10
2023-05-14T10:42:43.409Z,18.10
2023-05-14T10:45:12.524Z,18.30
2023-05-14T10:47:42.208Z,18.10
2023-05-14T10:50:11.657Z,17.90
2023-05-14T10:52:40.924Z,18.20
2023-05-14T10:55:08.771Z,18.50
2023-05-14T10:57:38.360Z,18.40
2023-05-14T11:00:10.906Z,18.60
2023-05-14T11:02:45.255Z,18.50
2023-05-14T11:05:17.698Z,18.80
2023-05-14T11:07:50.140Z,18.70
2023-05-14T11:10:22.418Z,18.70
2023-05-14T11:12:51.521Z,18.50
2023-05-14T11:15:23.076Z,18.50
2023-05-14T11:17:54.097Z,18.90
2023-05-14T11:20:21.616Z,19.00
2023-05-14T11:22:51.954Z,18.60
2023-05-14T11:25:19.290Z,18.50
2023-05-14T11:27:47.888Z,18.80
2023-05-14T11:30:19.845Z,18.80
2023-05-14T11:32:48.922Z,19.00
2023-05-14T11:35:17.820Z,18.90
2023-05-14T11:37:54.257Z,19.30
2023-05-14T11:40:21.644Z,19.40
2023-05-14T11:42:53.650Z,19.20
2023-05-14T11:45:27.790Z,19.70
2023-05-14T11:47:55.156Z,19.90
2023-05-14T11:50:25.409Z,20.10
2023-05-14T11:52:57.391Z,19.80
2023-05-14T11:55:24.901Z,20.10
2023-05-14T11:57:52.436Z,20.30
2023-05-14T12:00:22.265Z,20.20
2023-05-14T12:02:50.464Z,20.20
2023-05-14T12:05:18.074Z,20.30
2023-05-14T12:07:46.509Z,20.00
2023-05-14T12:10:14.128Z,19.70
2023-05-14T12:12:41.691Z,19.40
2023-05-14T12:15:17.241Z,19.80
2023-05-14T12:17:52.001Z,20.00
2023-05-14T12:20:19.630Z,19.90
2023-05-14T12:22:46.792Z,20.10
2023-05-14T12:25:14.646Z,20.40
2023-05-14T12:27:44.937Z,20.30
2023-05-14T12:30:21.462Z,20.40
2023-05-14T12:32:52.059Z,20.70
2023-05-14T12:35:23.263Z,20.80
2023-05-14T12:37:50.596Z,20.90
2023-05-14T12:40:20.518Z,20.60
2023-05-14T12:42:47.616Z,20.60
2023-05-14T12:45:14.664Z,20.30
2023-05-14T12:47:41.781Z,20.40
2023-05-14T12:50:09.303Z,20.40
2023-05-14T12:52:39.139Z,20.80
2023-05-14T12:55:09.352Z,20.80
2023-05-14T12:57:38.894Z,20.80
2023-05-14T13:00:08.234Z,21.10
2023-05-14T13:02:43.105Z,21.00
2023-05-14T13:05:12.040Z,20.80
2023-05-14T13:07:39.303Z,20.70
2023-05-14T13:10:07.061Z,20.70
2023-05-14T13:12:34.417Z,20.60
2023-05-14T13:15:01.563Z,20.60
2023-05-14T13:17:28.688Z,20.50
2023-05-14T13:19:55.758Z,20.50
2023-05-14T13:22:22.859Z,20.80
2023-05-14T13:24:50.135Z,21.10
2023-05-14T13:27:18.336Z,21.20
2023-05-14T13:29:45.425Z,20.80
2023-05-14T13:32:12.685Z,20.60
2023-05-14T13:34:39.882Z,20.80
2023-05-14T13:37:07.917Z,21.00
2023-05-14T13:39:34.767Z,21.30
2023-05-14T13:42:01.854Z,21.20
2023-05-14T13:44:29.579Z,21.40
2023-05-14T13:46:57.994Z,21.50
2023-05-14T13:49:25.062Z,21.30
2023-05-14T13:51:52.124Z,21.30
2023-05-14T13:54:19.107Z,21.20
2023-05-14T13:56:46.333Z,21.00
2023-05-14T13:59:13.327Z,21.00
2023-05-14T14:01:40.398Z,20.60
2023-05-14T14:04:07.528Z,20.90
2023-05-14T14:06:34.388Z,21.00
2023-05-14T14:09:01.428Z,20.90
2023-05-14T14:11:28.710Z,21.20
2023-05-14T14:13:55.852Z,21.30
2023-05-14T14:16:23.130Z,20.90
2023-05-14T14:18:50.187Z,20.50
2023-05-14T14:21:18.516Z,20.80
2023-05-14T14:23:49.109Z,20.70
2023-05-14T14:26:16.290Z,20.60
2023-05-14T14:28:43.639Z,20.10
2023-05-14T14:31:11.410Z,20.30
2023-05-14T14:33:38.276Z,20.20
2023-05-14T14:36:05.990Z,20.20
2023-05-14T14:38:33.096Z,20.10
2023-05-14T14:41:01.417Z,19.60
2023-05-14T14:43:28.574Z,19.40
2023-05-14T14:45:56.965Z,19.70
2023-05-14T14:48:28.227Z,19.60
2023-05-14T14:50:55.775Z,19.50
2023-05-14T14:53:23.444Z,19.60
2023-05-14T14:55:51.463Z,19.30
2023-05-14T14:58:19.860Z,19.20
2023-05-14T15:00:47.417Z,19.20
2023-05-14T15:03:15.380Z,19.00
2023-05-14T15:05:42.848Z,18.70
2023-05-14T15:08:10.335Z,18.80
2023-05-14T15:10:38.493Z,18.80
2023-05-14T15:13:06.929Z,18.30
2023-05-14T15:15:35.073Z,18.20
2023-05-14T15:18:03.514Z,18.00
2023-05-14T15:20:31.009Z,17.90
2023-05-14T15:22:58.193Z,17.80
2023-05-14T15:25:27.566Z,17.60
2023-05-14T15:27:54.824Z,17.60
2023-05-14T15:30:21.947Z,17.20
2023-05-14T15:32:49.731Z,17.00
2023-05-14T15:35:17.195Z,16.90
2023-05-14T15:37:44.982Z,16.90
2023-05-14T15:40:12.850Z,16.70
2023-05-14T15:42:44.651Z,16.90
2023-05-14T15:45:13.514Z,16.70
2023-05-14T15:47:45.354Z,16.60
2023-05-14T15:50:13.070Z,16.60
2023-05-14T15:52:40.539Z,16.40
2023-05-14T15:55:08.301Z,16.30
2023-05-14T15:57:35.777Z,16.20
2023-05-14T16:00:10.457Z,16.20
2023-05-14T16:02:39.471Z,16.20
2023-05-14T16:05:08.591Z,16.30
2023-05-14T16:07:36.832Z,16.60
2023-05-14T16:10:04.227Z,16.70
2023-05-14T16:12:31.657Z,16.90
2023-05-14T16:14:59.004Z,16.90
2023-05-14T16:17:28.598Z,17.00
2023-05-14T16:19:56.407Z,16.90
2023-05-14T16:22:24.106Z,17.00
2023-05-14T16:24:51.318Z,17.30
2023-05-14T16:27:21.668Z,17.10
2023-05-14T16:29:48.961Z,17.10
2023-05-14T16:32:16.438Z,17.10
2023-05-14T16:34:49.824Z,17.20
2023-05-14T16:37:17.893Z,17.00
2023-05-14T16:39:45.106Z,17.10
2023-05-14T16:42:12.892Z,17.00
2023-05-14T16:44:40.688Z,16.90
2023-05-14T16:47:08.192Z,17.00
2023-05-14T16:49:35.350Z,16.60
2023-05-14T16:52:02.763Z,16.80
2023-05-14T16:54:29.996Z,16.90
2023-05-14T16:56:57.023Z,16.50
2023-05-14T16:59:25.320Z,16.60
2023-05-14T17:01:52.762Z,16.60
2023-05-14T17:04:20.645Z,16.30
2023-05-14T17:06:47.893Z,16.20
2023-05-14T17:09:14.999Z,16.60
2023-05-14T17:11:42.102Z,16.50
2023-05-14T17:14:09.449Z,16.50
2023-05-14T17:16:38.896Z,16.80
2023-05-14T17:19:06.276Z,17.00
2023-05-14T17:21:33.736Z,17.10
2023-05-14T17:24:00.966Z,16.80
2023-05-14T17:26:28.366Z,16.40
2023-05-14T17:28:55.783Z,16.20
2023-05-14T17:31:23.530Z,16.10
2023-05-14T17:33:50.990Z,16.20
2023-05-14T17:36:18.253Z,16.20
2023-05-14T17:38:45.355Z,16.00
2023-05-14T17:41:12.567Z,16.00
2023-05-14T17:43:39.464Z,15.90
2023-05-14T17:46:07.600Z,16.00
2023-05-14T17:48:34.800Z,16.00
2023-05-14T17:51:01.987Z,16.00
2023-05-14T17:53:29.171Z,15.90
2023-05-14T17:55:56.356Z,15.50
2023-05-14T17:58:31.878Z,15.30
2023-05-14T18:00:59.308Z,15.30
2023-05-14T18:03:26.486Z,15.20
2023-05-14T18:05:54.046Z,15.30
2023-05-14T18:08:21.346Z,15.10
2023-05-14T18:10:51.331Z,15.20
2023-05-14T18:13:18.656Z,15.20
2023-05-14T18:15:45.742Z,15.10
2023-05-14T18:18:13.167Z,14.90
2023-05-14T18:20:40.148Z,15.00
2023-05-14T18:23:07.406Z,14.90
2023-05-14T18:25:36.122Z,14.60
2023-05-14T18:28:03.550Z,14.70
2023-05-14T18:30:30.861Z,14.80
2023-05-14T18:32:58.968Z,14.60
2023-05-14T18:35:26.515Z,14.60
2023-05-14T18:37:54.671Z,14.60
2023-05-14T18:40:21.730Z,14.50
2023-05-14T18:42:48.977Z,14.50
2023-05-14T18:45:19.293Z,14.50
2023-05-14T18:47:49.296Z,14.50
2023-05-14T18:50:16.699Z,14.50
2023-05-14T18:52:44.412Z,14.50
2023-05-14T18:55:11.770Z,14.50
2023-05-14T18:57:39.110Z,14.50
2023-05-14T19:00:07.147Z,14.50
2023-05-14T19:02:34.744Z,14.50
2023-05-14T19:05:01.925Z,14.40
2023-05-14T19:07:33.420Z,14.40
2023-05-14T19:10:00.872Z,14.20
2023-05-14T19:12:28.497Z,14.20
2023-05-14T19:14:55.722Z,14.20
2023-05-14T19:17:23.024Z,14.20
2023-05-14T19:19:50.348Z,14.20
2023-05-14T19:22:17.657Z,14.20
2023-05-14T19:24:44.929Z,14.10
2023-05-14T19:27:16.279Z,14.20
2023-05-14T19:29:46.718Z,14.10
2023-05-14T19:32:13.996Z,14.00
2023-05-14T19:34:41.233Z,13.90
2023-05-14T19:37:08.636Z,13.90
2023-05-14T19:39:36.053Z,13.90
2023-05-14T19:42:03.265Z,13.80
2023-05-14T19:44:31.309Z,13.70
2023-05-14T19:46:58.737Z,13.70
2023-05-14T19:49:26.415Z,13.70
2023-05-14T19:51:53.872Z,13.70
2023-05-14T19:54:21.141Z,13.60
2023-05-14T19:56:50.683Z,13.60
2023-05-14T19:59:17.689Z,13.40
2023-05-14T20:01:44.866Z,13.40
2023-05-14T20:04:14.207Z,13.40
2023-05-14T20:06:41.772Z,13.40
2023-05-14T20:09:11.836Z,13.40
2023-05-14T20:11:39.096Z,13.40
2023-05-14T20:14:06.354Z,13.40
2023-05-14T20:16:33.781Z,13.40
2023-05-14T20:19:00.900Z,13.40
2023-05-14T20:21:28.455Z,13.40
2023-05-14T20:23:55.786Z,13.30
2023-05-14T20:26:22.954Z,13.30
2023-05-14T20:28:50.104Z,13.30
2023-05-14T20:31:17.565Z,13.30
2023-05-14T20:33:44.723Z,13.30
2023-05-14T20:36:12.134Z,13.20
2023-05-14T20:38:41.025Z,13.20
2023-05-14T20:41:08.756Z,13.30
2023-05-14T20:43:35.893Z,13.20
2023-05-14T20:46:03.069Z,13.20
2023-05-14T20:48:30.106Z,13.20
2023-05-14T20:50:57.185Z,13.20
2023-05-14T20:53:25.574Z,13.10
2023-05-14T20:55:52.859Z,13.20
2023-05-14T20:58:20.612Z,13.20
2023-05-14T21:00:47.886Z,13.20
2023-05-14T21:03:15.276Z,13.10
2023-05-14T21:05:43.814Z,13.20
2023-05-14T21:08:11.159Z,13.10
2023-05-14T21:10:38.344Z,13.20
2023-05-14T21:13:05.365Z,13.10
2023-05-14T21:15:32.826Z,13.20
2023-05-14T21:18:00.273Z,13.10
2023-05-14T21:20:27.315Z,13.20
2023-05-14T21:22:54.472Z,13.10
2023-05-14T21:25:21.649Z,13.10
2023-05-14T21:27:48.846Z,13.00
2023-05-14T21:30:16.053Z,12.90
2023-05-14T21:32:43.175Z,12.90
2023-05-14T21:35:10.419Z,12.80
2023-05-14T21:37:39.820Z,12.80
2023-05-14T21:40:09.691Z,12.80
2023-05-14T21:42:37.288Z,12.80
2023-05-14T21:45:04.881Z,12.70
2023-05-14T21:47:32.738Z,12.60
2023-05-14T21:49:59.836Z,12.70
2023-05-14T21:52:26.995Z,12.70
2023-05-14T21:54:54.304Z,12.70
2023-05-14T21:57:21.397Z,12.60
2023-05-14T21:59:48.352Z,12.60
2023-05-14T22:02:15.621Z,12.50
2023-05-14T22:04:42.771Z,12.50
2023-05-14T22:07:09.778Z,12.50
2023-05-14T22:09:36.921Z,12.50
2023-05-14T22:12:04.290Z,12.40
2023-05-14T22:14:31.534Z,12.40
2023-05-14T22:16:58.854Z,12.40
2023-05-14T22:19:26.974Z,12.40
2023-05-14T22:21:54.755Z,12.30
2023-05-14T22:24:22.109Z,12.30
2023-05-14T22:26:49.423Z,12.30
2023-05-14T22:29:16.580Z,12.20
2023-05-14T22:31:44.053Z,12.30
2023-05-14T22:34:11.265Z,12.30
2023-05-14T22:36:38.342Z,12.30
2023-05-14T22:39:05.606Z,12.20
2023-05-14T22:41:32.863Z,12.10
2023-05-14T22:44:00.319Z,12.10
2023-05-14T22:46:27.809Z,12.00
2023-05-14T22:48:55.625Z,12.00
2023-05-14T22:51:22.690Z,11.90
2023-05-14T22:53:50.022Z,11.70
2023-05-14T22:56:17.476Z,11.60
2023-05-14T22:58:44.737Z,11.60
2023-05-14T23:01:11.772Z,11.50
2023-05-14T23:03:38.945Z,11.60
2023-05-14T23:06:06.261Z,11.50
2023-05-14T23:08:33.601Z,11.50
2023-05-14T23:11:00.787Z,11.50
2023-05-14T23:13:27.971Z,11.40
2023-05-14T23:15:55.054Z,11.50
2023-05-14T23:18:24.094Z,11.50
2023-05-14T23:20:51.205Z,11.40
2023-05-14T23:23:18.449Z,11.40
2023-05-14T23:25:45.548Z,11.40
2023-05-14T23:28:12.756Z,11.40
2023-05-14T23:30:39.729Z,11.40
2023-05-14T23:33:07.216Z,11.40
2023-05-14T23:35:35.506Z,11.40
2023-05-14T23:38:03.932Z,11.30
2023-05-14T23:40:31.905Z,11.40
2023-05-14T23:43:00.606Z,11.30
2023-05-14T23:45:28.416Z,11.30
2023-05-14T23:47:57.374Z,11.30
2023-05-14T23:50:25.205Z,11.30
2023-05-14T23:52:53.511Z,11.30
2023-05-14T23:55:20.914Z,11.40
2023-05-14T23:57:51.371Z,11.40
